Time;durP1;ratioP1;P1;durP2;ratioP2;P2;SDS_P1;SDS_P2;PMS_P1;PMS_P2;Temp;Humidity;BMP_temperature;BMP_pressure;BME280_temperature;BME280_humidity;BME280_pressure;Samples;Min_cycle;Max_cycle;Signal;HPM_P1;HPM_P2
2022/01/30 00:02:05;;;;;;;0.40;0.20;;;6.70;99.90;;;;;;5030260;28;20563;-73
2022/01/30 00:04:31;;;;;;;0.40;0.30;;;6.70;99.90;;;;;;5013348;28;20481;-74
2022/01/30 00:06:56;;;;;;;0.40;0.20;;;6.70;99.90;;;;;;5013441;28;20380;-74
2022/01/30 00:09:23;;;;;;;0.40;0.20;;;6.70;99.90;;;;;;5029618;28;20444;-74
2022/01/30 00:11:55;;;;;;;0.40;0.20;;;6.70;99.90;;;;;;5031089;28;20474;-74
2022/01/30 00:14:22;;;;;;;0.40;0.20;;;6.60;99.90;;;;;;5030231;28;20547;-74
2022/01/30 00:16:56;;;;;;;0.40;0.20;;;6.70;99.90;;;;;;5013568;28;20401;-74
2022/01/30 00:19:29;;;;;;;0.40;0.20;;;6.70;99.90;;;;;;5029348;28;21019;-74
2022/01/30 00:22:23;;;;;;;0.40;0.20;;;6.70;99.90;;;;;;5030915;28;20376;-74
2022/01/30 00:24:48;;;;;;;0.40;0.30;;;6.70;99.90;;;;;;5030257;28;20464;-74
2022/01/30 00:27:18;;;;;;;0.40;0.20;;;6.70;99.90;;;;;;5029928;28;20453;-75
2022/01/30 00:29:44;;;;;;;0.40;0.20;;;6.70;99.90;;;;;;5030818;28;20411;-74
2022/01/30 00:32:10;;;;;;;0.40;0.20;;;6.70;99.90;;;;;;5029824;28;20407;-75
2022/01/30 00:34:36;;;;;;;0.40;0.20;;;6.70;99.90;;;;;;5030262;28;20415;-74
2022/01/30 00:37:03;;;;;;;0.40;0.20;;;6.60;99.90;;;;;;5030030;28;20456;-74
2022/01/30 00:39:29;;;;;;;0.40;0.30;;;6.60;99.90;;;;;;5029765;28;20383;-74
2022/01/30 00:41:55;;;;;;;0.40;0.20;;;6.60;99.90;;;;;;5012555;28;20391;-74
2022/01/30 00:44:20;;;;;;;0.40;0.20;;;6.70;99.90;;;;;;5029491;28;20399;-74
2022/01/30 00:46:46;;;;;;;0.40;0.20;;;6.70;99.90;;;;;;5030384;28;20388;-74
2022/01/30 00:49:12;;;;;;;0.40;0.20;;;6.60;99.90;;;;;;5029570;28;20955;-74
2022/01/30 00:51:38;;;;;;;0.40;0.20;;;6.60;99.90;;;;;;5029175;28;20391;-73
2022/01/30 00:54:05;;;;;;;0.40;0.20;;;6.70;99.90;;;;;;5030376;28;20768;-73
2022/01/30 00:56:31;;;;;;;0.40;0.20;;;6.70;99.90;;;;;;5030034;28;20478;-73
2022/01/30 00:58:57;;;;;;;0.40;0.20;;;6.70;99.90;;;;;;5030519;28;20422;-74
2022/01/30 01:01:22;;;;;;;0.40;0.20;;;6.60;99.90;;;;;;5029882;28;20407;-75
2022/01/30 01:03:48;;;;;;;0.40;0.20;;;6.60;99.90;;;;;;5030160;28;20383;-74
2022/01/30 01:06:14;;;;;;;0.40;0.20;;;6.60;99.90;;;;;;5029172;28;20399;-74
2022/01/30 01:08:53;;;;;;;0.40;0.30;;;6.60;99.90;;;;;;5030242;28;20839;-74
2022/01/30 01:14:02;;;;;;;0.40;0.20;;;6.60;99.90;;;;;;5029763;28;20438;-74
2022/01/30 01:24:40;;;;;;;0.50;0.50;;;6.60;99.90;;;;;;5030427;28;20986;-74
2022/01/30 01:27:06;;;;;;;0.40;0.20;;;6.60;99.90;;;;;;5030139;28;20391;-75
2022/01/30 01:29:31;;;;;;;0.40;0.20;;;6.60;99.90;;;;;;5029470;28;20387;-74
2022/01/30 01:31:57;;;;;;;0.40;0.20;;;6.60;99.90;;;;;;5030155;28;20387;-73
2022/01/30 01:36:48;;;;;;;0.40;0.20;;;6.60;99.90;;;;;;5029766;28;20410;-73
2022/01/30 01:39:14;;;;;;;0.40;0.20;;;6.60;99.90;;;;;;5029671;28;20391;-74
2022/01/30 01:41:41;;;;;;;0.40;0.20;;;6.70;99.90;;;;;;5029616;28;20389;-74
2022/01/30 01:44:38;;;;;;;0.60;0.50;;;6.60;99.90;;;;;;5030083;28;20390;-75
2022/01/30 01:47:05;;;;;;;0.40;0.20;;;6.60;99.90;;;;;;5010334;28;20400;-75
2022/01/30 01:49:32;;;;;;;0.40;0.20;;;6.60;99.90;;;;;;5009845;28;20383;-73
2022/01/30 01:52:18;;;;;;;0.40;0.20;;;6.50;99.90;;;;;;5010502;28;20501;-74
2022/01/30 01:55:03;;;;;;;0.40;0.20;;;6.50;99.90;;;;;;4996272;28;20416;-74
2022/01/30 01:57:28;;;;;;;0.40;0.20;;;6.50;99.90;;;;;;5008222;28;21262;-74
2022/01/30 01:59:56;;;;;;;0.40;0.20;;;6.50;99.90;;;;;;5013751;28;20373;-75
2022/01/30 02:02:23;;;;;;;0.40;0.20;;;6.50;99.90;;;;;;5012724;28;20950;-74
2022/01/30 02:04:49;;;;;;;0.40;0.20;;;6.50;99.90;;;;;;5013805;28;20392;-74
2022/01/30 02:10:03;;;;;;;0.40;0.20;;;6.50;99.90;;;;;;5013811;28;20391;-74
2022/01/30 02:12:37;;;;;;;0.40;0.20;;;6.50;99.90;;;;;;5012766;28;20377;-75
2022/01/30 02:23:53;;;;;;;0.40;0.20;;;6.60;99.90;;;;;;5013740;28;20412;-74
2022/01/30 02:26:18;;;;;;;0.40;0.20;;;6.50;99.90;;;;;;5032431;28;20382;-75
2022/01/30 02:28:44;;;;;;;0.40;0.20;;;6.60;99.90;;;;;;5032627;28;20395;-75
2022/01/30 02:31:14;;;;;;;0.40;0.30;;;6.70;99.90;;;;;;5033213;28;20391;-74
2022/01/30 02:33:41;;;;;;;0.40;0.20;;;6.70;99.90;;;;;;5032933;28;20433;-74
2022/01/30 02:36:06;;;;;;;0.40;0.20;;;6.70;99.90;;;;;;5032910;28;20742;-73
2022/01/30 02:38:32;;;;;;;0.40;0.20;;;6.70;99.90;;;;;;5032069;28;20399;-75
2022/01/30 02:40:58;;;;;;;0.40;0.20;;;6.70;99.90;;;;;;5032951;28;20921;-72
2022/01/30 02:43:30;;;;;;;0.40;0.20;;;6.70;99.90;;;;;;5031987;28;20763;-72
2022/01/30 02:46:08;;;;;;;0.40;0.20;;;6.70;99.90;;;;;;5032714;28;20518;-75
2022/01/30 02:49:13;;;;;;;0.40;0.20;;;6.70;99.90;;;;;;5031591;28;20475;-74
2022/01/30 02:51:35;;;;;;;0.40;0.20;;;6.80;99.90;;;;;;5031423;28;20395;-75
2022/01/30 02:54:05;;;;;;;0.40;0.20;;;6.70;99.90;;;;;;5032345;28;20407;-72
2022/01/30 02:56:31;;;;;;;0.40;0.20;;;6.70;99.90;;;;;;5031867;28;20391;-74
2022/01/30 02:58:57;;;;;;;0.40;0.20;;;6.70;99.90;;;;;;5032596;28;20390;-74
2022/01/30 03:01:23;;;;;;;0.40;0.20;;;6.70;99.90;;;;;;5031518;28;20383;-74
2022/01/30 03:03:48;;;;;;;0.40;0.20;;;6.70;99.90;;;;;;5014271;28;20415;-74
2022/01/30 03:06:14;;;;;;;0.50;0.50;;;6.70;99.90;;;;;;5031953;28;20418;-72
2022/01/30 03:08:39;;;;;;;0.40;0.20;;;6.80;99.90;;;;;;5031210;28;20388;-74
2022/01/30 03:11:05;;;;;;;0.40;0.20;;;6.80;99.90;;;;;;5032104;28;20915;-74
2022/01/30 03:13:31;;;;;;;0.40;0.20;;;6.80;99.90;;;;;;5031261;28;20470;-75
2022/01/30 03:16:00;;;;;;;0.80;0.60;;;6.80;99.90;;;;;;5032267;28;20419;-75
2022/01/30 03:18:26;;;;;;;0.40;0.20;;;6.70;99.90;;;;;;5031239;28;20852;-75
2022/01/30 03:20:52;;;;;;;0.40;0.20;;;6.70;99.90;;;;;;5014452;28;20474;-75
2022/01/30 03:23:18;;;;;;;0.40;0.20;;;6.70;99.90;;;;;;5031521;28;20940;-75
2022/01/30 03:25:44;;;;;;;0.40;0.40;;;6.60;99.90;;;;;;5014343;28;20383;-75
2022/01/30 03:28:09;;;;;;;0.40;0.20;;;6.60;99.90;;;;;;5014147;28;20478;-75
2022/01/30 03:30:37;;;;;;;0.40;0.20;;;6.60;99.90;;;;;;5031126;28;21112;-73
2022/01/30 03:33:03;;;;;;;0.40;0.20;;;6.70;99.90;;;;;;5031773;28;20383;-75
2022/01/30 03:35:28;;;;;;;0.40;0.20;;;6.70;99.90;;;;;;4997264;28;20797;-75
2022/01/30 03:37:54;;;;;;;0.40;0.20;;;6.80;99.90;;;;;;5031613;28;20407;-75
2022/01/30 03:40:20;;;;;;;0.40;0.20;;;6.80;99.90;;;;;;5030421;28;20909;-74
2022/01/30 03:42:46;;;;;;;0.40;0.20;;;6.90;99.90;;;;;;5031657;28;20383;-74
2022/01/30 03:45:12;;;;;;;0.40;0.20;;;6.90;99.90;;;;;;5013970;28;20864;-74
2022/01/30 03:47:38;;;;;;;0.40;0.20;;;6.90;99.90;;;;;;5030892;28;21045;-74
2022/01/30 03:50:04;;;;;;;0.40;0.30;;;7.00;99.90;;;;;;5031489;28;20375;-75
2022/01/30 03:52:30;;;;;;;0.40;0.20;;;7.00;99.90;;;;;;5030498;28;20410;-76
2022/01/30 03:54:56;;;;;;;0.40;0.20;;;7.00;99.90;;;;;;5031452;28;20501;-76
2022/01/30 03:57:21;;;;;;;0.40;0.20;;;7.10;99.90;;;;;;5030543;28;20387;-75
2022/01/30 03:59:47;;;;;;;0.40;0.20;;;7.10;99.90;;;;;;5031681;28;20947;-76
2022/01/30 04:02:13;;;;;;;0.40;0.20;;;7.00;99.90;;;;;;5031277;28;20782;-74
2022/01/30 04:04:38;;;;;;;0.40;0.20;;;6.90;99.90;;;;;;5012786;28;20383;-74
2022/01/30 04:07:04;;;;;;;0.40;0.20;;;6.90;99.90;;;;;;5013386;28;20399;-74
2022/01/30 04:09:30;;;;;;;0.40;0.20;;;7.00;99.90;;;;;;5012734;28;20392;-74
2022/01/30 04:11:56;;;;;;;0.40;0.20;;;6.90;99.90;;;;;;5030313;28;20486;-74
2022/01/30 04:14:22;;;;;;;0.40;0.30;;;6.90;99.90;;;;;;5030098;28;20439;-73
2022/01/30 04:16:48;;;;;;;0.40;0.20;;;7.00;99.90;;;;;;5030891;28;20441;-74
2022/01/30 04:19:14;;;;;;;0.40;0.30;;;7.00;99.90;;;;;;5027024;28;20498;-75
2022/01/30 04:21:40;;;;;;;0.60;0.60;;;6.90;99.90;;;;;;5030151;28;20490;-75
2022/01/30 04:24:06;;;;;;;0.40;0.20;;;6.90;99.90;;;;;;5030929;28;20398;-75
2022/01/30 04:26:32;;;;;;;0.40;0.20;;;6.90;99.90;;;;;;5029607;28;20409;-74
2022/01/30 04:28:58;;;;;;;0.40;0.20;;;7.00;99.90;;;;;;5029687;28;20387;-75
2022/01/30 04:31:24;;;;;;;0.40;0.20;;;7.00;99.90;;;;;;5030159;28;20411;-75
2022/01/30 04:33:50;;;;;;;0.40;0.20;;;6.90;99.90;;;;;;5013102;28;20906;-76
2022/01/30 04:36:22;;;;;;;0.40;0.20;;;6.90;99.90;;;;;;5030673;28;20486;-75
2022/01/30 05:00:50;;;;;;;0.40;0.20;;;6.90;99.90;;;;;;5030472;28;20391;-73
2022/01/30 05:06:16;;;;;;;0.40;0.20;;;6.80;99.90;;;;;;5030729;28;20387;-75
2022/01/30 05:08:42;;;;;;;0.40;0.20;;;6.80;99.90;;;;;;5030120;28;20385;-75
2022/01/30 05:11:09;;;;;;;0.40;0.20;;;6.80;99.90;;;;;;5013057;28;20457;-73
2022/01/30 05:13:41;;;;;;;0.40;0.20;;;6.80;99.90;;;;;;5029819;28;20407;-75
2022/01/30 05:16:07;;;;;;;0.40;0.20;;;6.80;99.90;;;;;;5030792;28;20387;-74
2022/01/30 05:18:33;;;;;;;0.40;0.20;;;6.80;99.90;;;;;;5030195;28;20399;-74
2022/01/30 05:20:59;;;;;;;0.40;0.20;;;6.80;99.90;;;;;;5030566;28;20731;-74
2022/01/30 05:23:25;;;;;;;0.40;0.20;;;6.80;99.90;;;;;;5030068;28;20406;-74
2022/01/30 05:25:52;;;;;;;0.40;0.20;;;6.80;99.90;;;;;;5030420;28;20747;-74
2022/01/30 05:28:22;;;;;;;0.40;0.20;;;6.70;99.90;;;;;;5034625;28;20391;-74
2022/01/30 05:30:48;;;;;;;0.40;0.20;;;6.70;99.90;;;;;;5034147;28;20383;-74
2022/01/30 05:33:14;;;;;;;0.40;0.20;;;6.70;99.90;;;;;;5034139;28;20570;-74
2022/01/30 05:35:41;;;;;;;0.40;0.20;;;6.70;99.90;;;;;;5033762;28;20391;-75
2022/01/30 05:38:06;;;;;;;0.40;0.20;;;6.70;99.90;;;;;;5033722;28;20486;-75
2022/01/30 05:40:35;;;;;;;0.40;0.20;;;6.60;99.90;;;;;;5032865;28;20502;-75
2022/01/30 05:43:02;;;;;;;0.40;0.20;;;6.60;99.90;;;;;;5034048;28;20445;-75
2022/01/30 05:45:36;;;;;;;0.40;0.20;;;6.60;99.90;;;;;;5032081;28;20387;-75
2022/01/30 05:48:14;;;;;;;0.40;0.20;;;6.60;99.90;;;;;;5034022;28;20398;-75
2022/01/30 05:50:41;;;;;;;0.40;0.20;;;6.70;99.90;;;;;;5017499;28;20387;-75
2022/01/30 05:53:06;;;;;;;0.40;0.20;;;6.60;99.90;;;;;;5033653;28;20394;-75
2022/01/30 05:55:32;;;;;;;0.40;0.20;;;6.60;99.90;;;;;;5033115;28;20383;-75
2022/01/30 05:58:05;;;;;;;0.40;0.30;;;6.60;99.90;;;;;;5033764;28;20383;-74
2022/01/30 06:00:31;;;;;;;0.40;0.20;;;6.60;99.90;;;;;;5032710;28;20392;-75
2022/01/30 06:02:56;;;;;;;0.40;0.20;;;6.60;99.90;;;;;;5033845;28;20390;-75
2022/01/30 06:05:23;;;;;;;0.40;0.20;;;6.60;99.90;;;;;;5015670;28;20493;-75
2022/01/30 06:07:57;;;;;;;0.40;0.20;;;6.70;99.90;;;;;;5033019;28;20387;-75
2022/01/30 06:10:25;;;;;;;0.40;0.20;;;6.60;99.90;;;;;;5033732;28;20390;-74
2022/01/30 06:12:50;;;;;;;0.40;0.20;;;6.70;99.90;;;;;;5032922;28;20897;-74
2022/01/30 06:15:17;;;;;;;0.40;0.20;;;6.70;99.90;;;;;;5033268;28;20502;-75
2022/01/30 06:17:43;;;;;;;0.40;0.20;;;6.70;99.90;;;;;;5032651;28;20445;-74
2022/01/30 06:20:10;;;;;;;0.50;0.40;;;6.60;99.90;;;;;;5031597;28;20398;-74
2022/01/30 06:22:37;;;;;;;0.40;0.20;;;6.70;99.90;;;;;;5022294;28;20411;-74
2022/01/30 06:25:03;;;;;;;0.40;0.20;;;6.60;99.90;;;;;;5033311;28;20387;-74
2022/01/30 06:27:29;;;;;;;0.40;0.20;;;6.50;99.90;;;;;;5032136;28;20399;-75
2022/01/30 06:29:55;;;;;;;0.40;0.20;;;6.50;99.90;;;;;;5033366;28;20394;-76
2022/01/30 06:32:21;;;;;;;0.40;0.20;;;6.50;99.90;;;;;;5032992;28;20379;-74
2022/01/30 06:34:46;;;;;;;0.40;0.20;;;6.40;99.90;;;;;;5014848;28;20414;-75
2022/01/30 06:37:12;;;;;;;0.40;0.20;;;6.40;99.90;;;;;;5032627;28;20411;-75
2022/01/30 06:39:38;;;;;;;0.40;0.40;;;6.40;99.90;;;;;;5031754;28;20458;-75
2022/01/30 06:42:05;;;;;;;0.40;0.20;;;6.40;99.90;;;;;;5032975;28;20727;-76
2022/01/30 06:44:30;;;;;;;0.40;0.20;;;6.30;99.90;;;;;;5031964;28;20387;-76
2022/01/30 06:46:56;;;;;;;1.10;0.60;;;6.30;99.90;;;;;;5032842;28;20438;-77
2022/01/30 06:49:22;;;;;;;0.40;0.20;;;6.30;99.90;;;;;;5033306;28;20383;-77
2022/01/30 06:51:48;;;;;;;0.40;0.20;;;6.20;99.90;;;;;;5031687;28;21029;-77
2022/01/30 06:54:14;;;;;;;0.40;0.20;;;6.30;99.90;;;;;;5032610;28;20877;-76
2022/01/30 06:56:39;;;;;;;0.40;0.20;;;6.30;99.90;;;;;;5031934;28;20386;-76
2022/01/30 06:59:05;;;;;;;0.40;0.20;;;6.20;99.90;;;;;;5032557;28;20383;-76
2022/01/30 07:01:31;;;;;;;0.40;0.20;;;6.10;99.90;;;;;;5031893;28;20393;-75
2022/01/30 07:03:56;;;;;;;0.40;0.20;;;6.10;99.90;;;;;;5032883;28;20399;-76
2022/01/30 07:06:23;;;;;;;0.40;0.20;;;6.00;99.90;;;;;;5032303;28;20387;-76
2022/01/30 07:08:48;;;;;;;0.40;0.20;;;5.90;99.90;;;;;;5014118;28;21003;-76
2022/01/30 07:11:15;;;;;;;0.40;0.30;;;5.90;99.90;;;;;;5030360;28;20401;-76
2022/01/30 07:13:41;;;;;;;0.40;0.40;;;5.90;99.90;;;;;;5028635;28;20426;-76
2022/01/30 07:16:07;;;;;;;0.40;0.20;;;5.90;99.90;;;;;;5029912;28;20402;-74
2022/01/30 07:18:33;;;;;;;0.40;0.20;;;5.90;99.90;;;;;;5030964;28;20395;-75
2022/01/30 07:20:58;;;;;;;0.40;0.20;;;6.00;99.90;;;;;;5031824;28;20383;-76
2022/01/30 07:23:24;;;;;;;0.40;0.20;;;6.00;99.90;;;;;;5031953;28;20398;-76
2022/01/30 07:25:51;;;;;;;0.40;0.20;;;6.10;99.90;;;;;;5031231;28;20387;-77
2022/01/30 07:28:16;;;;;;;0.40;0.20;;;6.00;99.90;;;;;;5029190;28;21597;-75
2022/01/30 07:30:42;;;;;;;0.40;0.20;;;6.00;99.90;;;;;;5030833;28;20376;-76
2022/01/30 07:33:08;;;;;;;0.40;0.20;;;6.00;99.90;;;;;;5031118;28;20389;-76
2022/01/30 07:35:36;;;;;;;0.40;0.20;;;6.00;99.90;;;;;;5031212;28;20715;-75
2022/01/30 07:38:03;;;;;;;0.40;0.20;;;6.10;99.90;;;;;;5031930;28;20438;-75
2022/01/30 07:40:32;;;;;;;0.40;0.20;;;6.20;99.90;;;;;;5031288;28;20390;-76
2022/01/30 07:42:58;;;;;;;0.40;0.22;;;6.30;99.90;;;;;;5031830;28;20522;-76
2022/01/30 07:45:24;;;;;;;0.40;0.20;;;6.30;99.90;;;;;;5031493;28;20466;-76
2022/01/30 07:47:50;;;;;;;0.40;0.20;;;6.20;99.90;;;;;;5030528;28;20895;-76
2022/01/30 07:50:16;;;;;;;0.40;0.20;;;6.10;99.90;;;;;;5012737;28;20478;-76
2022/01/30 07:52:42;;;;;;;0.40;0.20;;;6.20;99.90;;;;;;5027554;28;20482;-75
2022/01/30 07:55:08;;;;;;;0.40;0.20;;;6.20;99.90;;;;;;5029168;28;20903;-74
2022/01/30 07:57:34;;;;;;;0.40;0.20;;;6.20;99.90;;;;;;5028097;28;20387;-75
2022/01/30 07:59:59;;;;;;;0.40;0.20;;;6.20;99.90;;;;;;5012139;28;20418;-76
2022/01/30 08:02:25;;;;;;;0.40;0.20;;;6.20;99.90;;;;;;5031138;28;20382;-76
2022/01/30 08:04:52;;;;;;;0.40;0.20;;;6.20;99.90;;;;;;5027513;28;20534;-76
2022/01/30 08:07:19;;;;;;;0.40;0.20;;;6.30;99.90;;;;;;5031297;28;20424;-76
2022/01/30 08:09:45;;;;;;;0.40;0.20;;;6.40;99.90;;;;;;5030482;28;20411;-77
2022/01/30 08:12:10;;;;;;;0.40;0.30;;;6.30;99.90;;;;;;5013623;28;20422;-76
2022/01/30 08:14:36;;;;;;;0.40;0.25;;;6.40;99.90;;;;;;5012436;28;20759;-76
2022/01/30 08:17:03;;;;;;;0.40;0.20;;;6.50;99.90;;;;;;5030983;28;20387;-77
2022/01/30 08:19:29;;;;;;;1.50;0.90;;;6.60;99.90;;;;;;5028108;28;20399;-75
2022/01/30 08:21:57;;;;;;;0.40;0.20;;;6.50;99.90;;;;;;5023519;28;20748;-75
2022/01/30 08:24:24;;;;;;;0.40;0.20;;;6.50;99.90;;;;;;5030389;28;20905;-75
2022/01/30 08:26:50;;;;;;;0.40;0.20;;;6.70;99.90;;;;;;5011394;28;20379;-75
2022/01/30 08:29:16;;;;;;;0.40;0.20;;;6.80;99.90;;;;;;5029928;28;20398;-75
2022/01/30 08:31:42;;;;;;;0.40;0.20;;;6.80;99.90;;;;;;5029629;28;20387;-76
2022/01/30 08:34:08;;;;;;;0.40;0.20;;;6.80;99.90;;;;;;5030558;28;20516;-75
2022/01/30 08:36:34;;;;;;;0.40;0.20;;;6.90;99.90;;;;;;5023918;28;20422;-75
2022/01/30 08:39:00;;;;;;;0.50;0.50;;;7.00;99.90;;;;;;5030698;28;20603;-76
2022/01/30 08:41:26;;;;;;;0.40;0.20;;;7.00;99.90;;;;;;5030620;28;20379;-75
2022/01/30 08:43:52;;;;;;;0.40;0.20;;;7.00;99.90;;;;;;5029446;28;20628;-76
2022/01/30 08:46:17;;;;;;;0.40;0.20;;;7.00;99.90;;;;;;5030448;28;20387;-75
2022/01/30 08:48:43;;;;;;;0.40;0.37;;;7.10;99.90;;;;;;5029850;28;20397;-75
2022/01/30 08:51:09;;;;;;;0.40;0.20;;;7.10;99.90;;;;;;5030528;28;20383;-75
2022/01/30 08:53:35;;;;;;;0.40;0.20;;;7.10;99.90;;;;;;5027073;28;20415;-75
2022/01/30 08:56:01;;;;;;;0.40;0.20;;;7.20;99.90;;;;;;5025866;28;20410;-74
2022/01/30 08:58:26;;;;;;;0.40;0.30;;;7.30;99.90;;;;;;5028528;28;20391;-75
2022/01/30 09:00:52;;;;;;;0.40;0.20;;;7.30;99.90;;;;;;5026902;28;20383;-74
2022/01/30 09:03:18;;;;;;;0.40;0.20;;;7.20;99.90;;;;;;5030911;28;20461;-75
2022/01/30 09:05:44;;;;;;;0.40;0.20;;;7.30;99.90;;;;;;5036760;28;20389;-75
2022/01/30 09:08:10;;;;;;;0.40;0.20;;;7.30;99.90;;;;;;5013938;28;20409;-75
2022/01/30 09:10:38;;;;;;;0.40;0.20;;;7.40;99.90;;;;;;5039173;28;20739;-75
2022/01/30 09:13:05;;;;;;;0.40;0.30;;;7.40;99.90;;;;;;5045506;28;20435;-74
2022/01/30 09:15:37;;;;;;;0.40;0.20;;;7.50;99.90;;;;;;5041653;28;20382;-74
2022/01/30 09:18:07;;;;;;;0.40;0.20;;;7.60;99.90;;;;;;5035480;28;20411;-74
2022/01/30 09:20:33;;;;;;;0.40;0.20;;;7.70;99.90;;;;;;5038742;28;20387;-73
2022/01/30 09:22:59;;;;;;;0.40;0.20;;;7.80;99.90;;;;;;5042326;28;20470;-74
2022/01/30 09:25:25;;;;;;;0.40;0.30;;;7.70;99.90;;;;;;5044513;28;20381;-73
2022/01/30 09:27:51;;;;;;;0.40;0.20;;;7.50;99.90;;;;;;5040709;28;20905;-74
2022/01/30 09:30:17;;;;;;;0.40;0.30;;;7.30;99.90;;;;;;5044755;28;20418;-74
2022/01/30 09:32:43;;;;;;;0.40;0.30;;;7.30;99.90;;;;;;5022295;28;20384;-75
2022/01/30 09:35:09;;;;;;;0.40;0.20;;;7.20;99.90;;;;;;5043194;28;20461;-76
2022/01/30 09:37:35;;;;;;;0.40;0.20;;;7.10;99.90;;;;;;5042178;28;20393;-75
2022/01/30 09:40:01;;;;;;;0.40;0.20;;;7.20;99.90;;;;;;5043575;28;20392;-75
2022/01/30 09:42:28;;;;;;;0.40;0.20;;;7.20;99.90;;;;;;5041627;28;20490;-75
2022/01/30 09:44:54;;;;;;;0.40;0.20;;;7.10;99.90;;;;;;5040101;28;20584;-74
2022/01/30 09:47:20;;;;;;;0.40;0.20;;;7.10;99.90;;;;;;5023305;28;20944;-74
2022/01/30 09:49:52;;;;;;;0.40;0.20;;;7.00;99.90;;;;;;5040171;28;20865;-74
2022/01/30 09:52:19;;;;;;;0.40;0.30;;;7.10;99.90;;;;;;5040543;28;20381;-74
2022/01/30 09:54:46;;;;;;;0.40;0.20;;;7.10;99.90;;;;;;5040676;28;20569;-74
2022/01/30 09:57:12;;;;;;;0.40;0.20;;;7.30;99.90;;;;;;5023146;28;20392;-75
2022/01/30 09:59:38;;;;;;;0.40;0.20;;;7.30;99.90;;;;;;5040871;28;20848;-73
2022/01/30 10:02:08;;;;;;;6.00;0.70;;;7.30;99.90;;;;;;5044494;28;20453;-75
2022/01/30 10:04:35;;;;;;;0.40;0.20;;;7.10;99.90;;;;;;5043305;28;20385;-75
2022/01/30 10:07:08;;;;;;;0.40;0.20;;;7.30;99.90;;;;;;5039126;28;20398;-74
2022/01/30 10:09:37;;;;;;;0.40;0.20;;;7.40;99.90;;;;;;5040932;28;20387;-75
2022/01/30 10:14:53;;;;;;;0.40;0.20;;;7.40;99.90;;;;;;5038416;28;20413;-75
2022/01/30 10:17:38;;;;;;;0.40;0.20;;;7.40;99.90;;;;;;5043352;28;20539;-75
2022/01/30 10:20:10;;;;;;;0.40;0.20;;;7.30;99.90;;;;;;5036985;28;20399;-75
2022/01/30 10:22:58;;;;;;;0.40;0.30;;;7.40;99.90;;;;;;5042781;28;20389;-75
2022/01/30 10:25:25;;;;;;;0.40;0.20;;;7.60;99.90;;;;;;5029806;28;20834;-74
2022/01/30 10:28:26;;;;;;;1.00;0.50;;;7.60;99.90;;;;;;5029290;28;20402;-75
2022/01/30 10:30:55;;;;;;;0.40;0.20;;;7.70;99.90;;;;;;5026572;28;20417;-74
2022/01/30 10:33:23;;;;;;;0.40;0.20;;;7.90;99.90;;;;;;5014592;28;20407;-74
2022/01/30 10:35:58;;;;;;;0.40;0.30;;;7.80;99.90;;;;;;5030543;28;20400;-73
2022/01/30 10:38:25;;;;;;;0.40;0.38;;;7.80;99.90;;;;;;5036313;28;20868;-75
2022/01/30 10:41:17;;;;;;;1.20;0.70;;;7.70;99.90;;;;;;5041675;28;20449;-73
2022/01/30 10:43:54;;;;;;;0.40;0.20;;;7.70;99.90;;;;;;5037469;28;20388;-73
2022/01/30 10:46:32;;;;;;;0.40;0.20;;;7.70;99.90;;;;;;5032983;28;20399;-73
2022/01/30 10:49:00;;;;;;;0.40;0.20;;;7.90;99.90;;;;;;5039052;28;20904;-74
2022/01/30 10:51:28;;;;;;;0.40;0.40;;;7.80;99.90;;;;;;5023841;28;20385;-74
2022/01/30 10:53:56;;;;;;;0.40;0.20;;;7.80;99.90;;;;;;5037062;28;20794;-74
2022/01/30 10:56:27;;;;;;;0.40;0.20;;;8.00;99.90;;;;;;5038360;28;20427;-74
2022/01/30 10:59:09;;;;;;;0.40;0.30;;;8.00;99.90;;;;;;5038374;28;20398;-74
2022/01/30 11:01:40;;;;;;;0.40;0.20;;;8.10;99.90;;;;;;5041720;28;20459;-74
2022/01/30 11:04:07;;;;;;;0.40;0.20;;;8.40;99.90;;;;;;5037954;28;20891;-74
2022/01/30 11:06:39;;;;;;;0.40;0.20;;;8.30;99.90;;;;;;5037530;28;20464;-74
2022/01/30 11:09:13;;;;;;;0.40;0.20;;;8.40;99.90;;;;;;5039033;28;20373;-73
2022/01/30 11:11:46;;;;;;;0.40;0.20;;;8.30;99.90;;;;;;5015726;28;20396;-74
2022/01/30 11:19:24;;;;;;;0.40;0.20;;;8.30;99.90;;;;;;5035572;28;20414;-75
2022/01/30 11:21:52;;;;;;;0.40;0.20;;;8.20;99.90;;;;;;5038573;28;20467;-74
2022/01/30 11:24:21;;;;;;;0.40;0.25;;;8.20;99.90;;;;;;5039229;28;20463;-75
2022/01/30 11:26:47;;;;;;;0.40;0.30;;;8.30;99.90;;;;;;5036762;28;20386;-75
2022/01/30 11:29:15;;;;;;;0.40;0.20;;;8.50;99.90;;;;;;5037861;28;20434;-76
2022/01/30 11:31:41;;;;;;;0.40;0.20;;;8.20;99.90;;;;;;5033455;28;20443;-74
2022/01/30 11:34:08;;;;;;;0.40;0.20;;;8.20;99.90;;;;;;5035740;28;20436;-74
2022/01/30 11:36:37;;;;;;;0.40;0.20;;;8.00;99.90;;;;;;5033220;28;20422;-75
2022/01/30 11:39:05;;;;;;;0.40;0.20;;;8.10;99.90;;;;;;5031043;28;20883;-75
2022/01/30 11:41:34;;;;;;;0.40;0.30;;;8.60;99.90;;;;;;5037639;28;20387;-75
2022/01/30 11:44:18;;;;;;;0.40;0.20;;;9.50;99.90;;;;;;5039270;28;20953;-76
2022/01/30 11:47:04;;;;;;;0.40;0.20;;;9.40;99.90;;;;;;5035488;28;20453;-74
2022/01/30 11:49:53;;;;;;;0.40;0.30;;;9.60;99.90;;;;;;5031205;28;20407;-76
2022/01/30 11:52:20;;;;;;;0.90;0.90;;;9.40;99.90;;;;;;5038679;28;20401;-75
2022/01/30 11:54:53;;;;;;;0.40;0.20;;;9.80;99.90;;;;;;5037220;28;20443;-75
2022/01/30 11:57:22;;;;;;;0.40;0.30;;;10.60;99.90;;;;;;5041635;28;20382;-75
2022/01/30 11:59:53;;;;;;;0.40;0.22;;;11.30;99.90;;;;;;5035181;28;20390;-75
2022/01/30 12:02:29;;;;;;;0.40;0.20;;;12.00;98.10;;;;;;5041438;28;20398;-74
2022/01/30 12:05:06;;;;;;;0.40;0.30;;;11.20;96.80;;;;;;5036610;28;20403;-74
2022/01/30 12:07:49;;;;;;;0.40;0.20;;;10.70;98.50;;;;;;5038802;28;20443;-74
2022/01/30 12:10:26;;;;;;;0.40;0.20;;;10.00;99.90;;;;;;5038731;28;20530;-74
2022/01/30 12:12:53;;;;;;;1.00;0.90;;;10.00;99.90;;;;;;5040666;28;20397;-75
2022/01/30 12:15:43;;;;;;;0.40;0.20;;;9.60;99.90;;;;;;5040269;28;20418;-75
2022/01/30 12:18:19;;;;;;;0.40;0.30;;;9.40;99.90;;;;;;5039064;28;20407;-73
2022/01/30 12:20:57;;;;;;;0.40;0.30;;;9.40;99.90;;;;;;5038899;28;20385;-75
2022/01/30 12:23:27;;;;;;;0.40;0.20;;;9.80;99.90;;;;;;5040370;28;20762;-74
2022/01/30 12:25:56;;;;;;;0.40;0.22;;;10.30;99.40;;;;;;5037018;28;20442;-75
2022/01/30 12:28:49;;;;;;;0.40;0.30;;;10.50;96.80;;;;;;5038415;28;20451;-74
2022/01/30 12:31:34;;;;;;;0.40;0.20;;;10.10;96.00;;;;;;5033604;28;20446;-74
2022/01/30 12:34:05;;;;;;;1.80;0.60;;;9.90;97.80;;;;;;5033119;28;20410;-75
2022/01/30 12:36:38;;;;;;;0.40;0.30;;;9.20;99.90;;;;;;5034497;28;20399;-74
2022/01/30 12:39:19;;;;;;;0.40;0.20;;;9.00;99.90;;;;;;5033499;28;20385;-74
2022/01/30 12:41:45;;;;;;;0.40;0.30;;;9.30;99.90;;;;;;5031878;28;20398;-75
2022/01/30 12:44:13;;;;;;;0.40;0.20;;;9.40;99.90;;;;;;5037081;28;20461;-75
2022/01/30 12:46:46;;;;;;;0.40;0.20;;;9.30;99.90;;;;;;5035828;28;20375;-75
2022/01/30 12:49:19;;;;;;;0.40;0.20;;;9.20;99.90;;;;;;5016016;28;20405;-75
2022/01/30 12:51:51;;;;;;;0.40;0.20;;;9.40;99.90;;;;;;5037381;28;20389;-75
2022/01/30 12:54:23;;;;;;;0.40;0.20;;;9.40;99.90;;;;;;5039138;28;20448;-74
2022/01/30 12:56:50;;;;;;;0.40;0.30;;;8.90;99.90;;;;;;5035079;28;20395;-74
2022/01/30 12:59:18;;;;;;;0.40;0.20;;;9.20;99.90;;;;;;5018055;28;20751;-74
2022/01/30 13:01:47;;;;;;;0.40;0.20;;;9.10;99.90;;;;;;5029136;28;20399;-74
2022/01/30 13:04:15;;;;;;;0.40;0.20;;;9.00;99.90;;;;;;5030610;28;20487;-74
2022/01/30 13:06:42;;;;;;;0.40;0.30;;;9.30;99.90;;;;;;5013196;28;20380;-74
2022/01/30 13:09:09;;;;;;;0.40;0.20;;;9.40;99.90;;;;;;5024057;28;20409;-73
2022/01/30 13:11:36;;;;;;;0.40;0.20;;;9.50;99.60;;;;;;5026967;28;20407;-74
2022/01/30 13:14:07;;;;;;;0.40;0.20;;;9.40;99.50;;;;;;5038397;28;20405;-74
2022/01/30 13:16:37;;;;;;;0.40;0.20;;;9.50;98.30;;;;;;5037640;28;20449;-74
2022/01/30 13:19:06;;;;;;;0.40;0.30;;;9.30;98.80;;;;;;5039338;28;20656;-75
2022/01/30 13:21:34;;;;;;;0.80;0.80;;;8.90;98.70;;;;;;5038438;28;20392;-73
2022/01/30 13:24:01;;;;;;;0.60;0.60;;;8.90;98.10;;;;;;5040080;28;20504;-73
2022/01/30 13:26:37;;;;;;;0.40;0.20;;;9.10;98.20;;;;;;5018353;28;20406;-73
2022/01/30 13:29:07;;;;;;;1.30;0.50;;;9.10;97.40;;;;;;5038442;28;20390;-74
2022/01/30 13:31:37;;;;;;;0.40;0.20;;;8.60;96.70;;;;;;5039773;28;20780;-74
2022/01/30 13:34:15;;;;;;;0.40;0.20;;;8.90;97.60;;;;;;5044493;28;20421;-74
2022/01/30 13:36:42;;;;;;;0.40;0.30;;;9.20;97.00;;;;;;5049631;28;20460;-74
2022/01/30 13:39:15;;;;;;;0.40;0.30;;;9.10;96.50;;;;;;5049313;28;20385;-74
2022/01/30 13:41:49;;;;;;;0.60;0.60;;;8.90;96.30;;;;;;5049967;28;20381;-74
2022/01/30 13:44:26;;;;;;;0.40;0.30;;;8.90;96.50;;;;;;5050184;28;20389;-72
2022/01/30 13:49:21;;;;;;;0.40;0.20;;;8.80;95.90;;;;;;5008723;28;20401;-73
2022/01/30 13:51:46;;;;;;;0.40;0.30;;;9.10;96.20;;;;;;5013336;28;20404;-74
2022/01/30 13:54:13;;;;;;;0.40;0.30;;;8.90;95.60;;;;;;5014015;28;20459;-73
2022/01/30 13:56:38;;;;;;;0.40;0.30;;;9.00;95.90;;;;;;5014076;28;20388;-74
2022/01/30 13:59:04;;;;;;;0.80;0.60;;;9.10;95.60;;;;;;5012711;28;20392;-73
2022/01/30 14:01:30;;;;;;;0.40;0.20;;;9.00;95.70;;;;;;5014099;28;20385;-73
2022/01/30 14:04:11;;;;;;;0.40;0.20;;;9.00;95.80;;;;;;5013235;28;20870;-73
2022/01/30 14:06:38;;;;;;;0.40;0.20;;;9.30;94.50;;;;;;5013869;28;20392;-73